Time;durP1;ratioP1;P1;durP2;ratioP2;P2;SDS_P1;SDS_P2;PMS_P1;PMS_P2;Temp;Humidity;BMP_temperature;BMP_pressure;BME280_temperature;BME280_humidity;BME280_pressure;Samples;Min_cycle;Max_cycle;Signal;HPM_P1;HPM_P2
2023/09/07 00:00:13;;;;;;;6.95;4.13;;;21.70;99.90;;;;;;5093002;28;20115;-70
2023/09/07 00:02:39;;;;;;;7.40;3.67;;;21.60;99.90;;;;;;5093293;28;20044;-71
2023/09/07 00:05:06;;;;;;;9.93;3.70;;;21.60;99.90;;;;;;5094253;28;20092;-70
2023/09/07 00:07:32;;;;;;;7.00;4.22;;;21.60;99.90;;;;;;5092793;28;20048;-70
2023/09/07 00:09:58;;;;;;;4.20;3.60;;;21.60;99.90;;;;;;5093951;28;20401;-70
2023/09/07 00:12:23;;;;;;;5.10;3.83;;;21.50;99.90;;;;;;5094231;28;20040;-70
2023/09/07 00:14:49;;;;;;;4.90;3.80;;;21.50;99.90;;;;;;5092725;28;20044;-70
2023/09/07 00:17:14;;;;;;;6.53;4.28;;;21.50;99.90;;;;;;5094040;28;20032;-70
2023/09/07 00:19:40;;;;;;;6.57;4.43;;;21.40;99.90;;;;;;5092440;28;20043;-70
2023/09/07 00:22:05;;;;;;;4.85;4.07;;;21.40;99.90;;;;;;5093963;28;20396;-70
2023/09/07 00:24:31;;;;;;;5.93;4.93;;;21.30;99.90;;;;;;5093756;28;20445;-70
2023/09/07 00:26:57;;;;;;;5.28;4.45;;;21.30;99.90;;;;;;5092460;28;20062;-70
2023/09/07 00:29:23;;;;;;;13.02;4.53;;;21.30;99.90;;;;;;5093696;28;20044;-70
2023/09/07 00:31:48;;;;;;;6.05;4.35;;;21.30;99.90;;;;;;5093889;28;20093;-70
2023/09/07 00:34:14;;;;;;;4.68;4.18;;;21.20;99.90;;;;;;5092561;28;20642;-70
2023/09/07 00:36:40;;;;;;;6.63;4.18;;;21.20;99.90;;;;;;5093637;28;20488;-71
2023/09/07 00:39:05;;;;;;;5.65;4.28;;;21.20;99.90;;;;;;5093637;28;20040;-70
2023/09/07 00:41:31;;;;;;;16.00;4.90;;;21.10;99.90;;;;;;5093598;28;20084;-70
2023/09/07 00:43:56;;;;;;;7.10;4.70;;;21.10;99.90;;;;;;5093602;28;20415;-70
2023/09/07 00:46:22;;;;;;;8.85;4.80;;;21.10;99.90;;;;;;5092318;28;20043;-70
2023/09/07 00:48:49;;;;;;;10.15;4.45;;;21.10;99.90;;;;;;5093111;28;20035;-70
2023/09/07 00:51:14;;;;;;;5.15;4.28;;;21.00;99.90;;;;;;5093434;28;20067;-70
2023/09/07 00:53:40;;;;;;;7.90;4.30;;;21.00;99.90;;;;;;5093160;28;20044;-70
2023/09/07 00:56:07;;;;;;;10.02;4.95;;;21.00;99.90;;;;;;5091889;28;20165;-70
2023/09/07 00:58:32;;;;;;;7.18;4.80;;;21.00;99.90;;;;;;5091895;28;20427;-70
2023/09/07 01:00:59;;;;;;;10.57;4.20;;;21.00;99.90;;;;;;5093178;28;20073;-70
2023/09/07 01:03:24;;;;;;;8.20;4.93;;;21.00;99.90;;;;;;5091921;28;20032;-70
2023/09/07 01:06:01;;;;;;;6.25;3.85;;;20.90;99.90;;;;;;5093085;28;20388;-71
2023/09/07 01:08:32;;;;;;;12.55;5.30;;;20.90;99.90;;;;;;5093287;28;20135;-70
2023/09/07 01:10:58;;;;;;;7.15;4.43;;;20.90;99.90;;;;;;5092977;28;20036;-70
2023/09/07 01:13:24;;;;;;;6.68;4.47;;;20.80;99.90;;;;;;5091845;28;20078;-70
2023/09/07 01:15:50;;;;;;;8.93;5.18;;;20.90;99.90;;;;;;5092663;28;20047;-70
2023/09/07 01:18:17;;;;;;;6.70;4.40;;;20.80;99.90;;;;;;5092786;28;20119;-70
2023/09/07 01:20:45;;;;;;;7.32;5.45;;;20.80;99.90;;;;;;5092636;28;20046;-70
2023/09/07 01:23:12;;;;;;;5.30;4.53;;;20.70;99.90;;;;;;5091511;28;20119;-70
2023/09/07 01:25:40;;;;;;;5.97;4.38;;;20.70;99.90;;;;;;5092658;28;20039;-70
2023/09/07 01:28:06;;;;;;;7.22;5.13;;;20.70;99.90;;;;;;5092550;28;20519;-70
2023/09/07 01:30:35;;;;;;;8.23;4.15;;;20.70;99.90;;;;;;5091179;28;20047;-70
2023/09/07 01:33:03;;;;;;;8.55;4.68;;;20.60;99.90;;;;;;5091249;28;20511;-70
2023/09/07 01:35:30;;;;;;;5.50;4.18;;;20.60;99.90;;;;;;5091077;28;20072;-70
2023/09/07 01:37:56;;;;;;;8.32;4.80;;;20.50;99.90;;;;;;5092356;28;20044;-70
2023/09/07 01:40:21;;;;;;;9.13;5.07;;;20.50;99.90;;;;;;5092181;28;20040;-70
2023/09/07 01:42:47;;;;;;;7.45;4.32;;;20.50;99.90;;;;;;5091504;28;20028;-70
2023/09/07 01:45:12;;;;;;;6.93;4.97;;;20.40;99.90;;;;;;5092346;28;20248;-70
2023/09/07 01:47:38;;;;;;;8.10;5.18;;;20.40;99.90;;;;;;5089913;28;20586;-70
2023/09/07 01:50:04;;;;;;;7.22;4.38;;;20.40;99.90;;;;;;5092246;28;20047;-70
2023/09/07 01:52:31;;;;;;;10.93;5.50;;;20.30;99.90;;;;;;5092323;28;20083;-70
2023/09/07 01:54:56;;;;;;;9.15;4.82;;;20.30;99.90;;;;;;5090762;28;20518;-70
2023/09/07 01:57:22;;;;;;;7.78;5.22;;;20.30;99.90;;;;;;5092122;28;20032;-70
2023/09/07 01:59:48;;;;;;;7.28;5.03;;;20.20;99.90;;;;;;5092124;28;20111;-70
2023/09/07 02:02:14;;;;;;;10.90;5.20;;;20.20;99.90;;;;;;5090317;28;20415;-70
2023/09/07 02:04:40;;;;;;;9.00;4.90;;;20.10;99.90;;;;;;5092136;28;20127;-70
2023/09/07 02:07:06;;;;;;;6.82;5.30;;;20.20;99.90;;;;;;5091964;28;20047;-70
2023/09/07 02:09:32;;;;;;;8.85;4.72;;;20.10;99.90;;;;;;5091863;28;20063;-70
2023/09/07 02:11:57;;;;;;;10.75;5.57;;;20.10;99.90;;;;;;5073879;28;20044;-70
2023/09/07 02:14:23;;;;;;;8.68;5.10;;;20.10;99.90;;;;;;5091733;28;20480;-70
2023/09/07 02:16:49;;;;;;;8.07;5.38;;;20.00;99.90;;;;;;5091843;28;20090;-70
2023/09/07 02:19:14;;;;;;;9.45;4.15;;;20.00;99.90;;;;;;5091621;28;20036;-70
2023/09/07 02:21:40;;;;;;;11.75;5.65;;;20.00;99.90;;;;;;5090591;28;20043;-70
2023/09/07 02:24:06;;;;;;;10.82;5.35;;;19.90;99.90;;;;;;5090607;28;20044;-70
2023/09/07 02:26:31;;;;;;;10.98;5.20;;;20.00;99.90;;;;;;5091844;28;20051;-71
2023/09/07 02:28:57;;;;;;;12.05;6.00;;;20.00;99.90;;;;;;5091639;28;20028;-70
2023/09/07 02:31:23;;;;;;;10.68;6.00;;;19.90;99.90;;;;;;5090680;28;20051;-70
2023/09/07 02:33:49;;;;;;;11.07;6.50;;;19.90;99.90;;;;;;5091812;28;20036;-70
2023/09/07 02:36:14;;;;;;;9.73;4.85;;;19.90;99.90;;;;;;5090472;28;20040;-70
2023/09/07 02:38:40;;;;;;;7.60;5.00;;;19.80;99.90;;;;;;5091664;28;20036;-71
2023/09/07 02:41:05;;;;;;;9.30;5.40;;;19.80;99.90;;;;;;5091605;28;20043;-70
2023/09/07 02:43:31;;;;;;;8.23;5.70;;;19.80;99.90;;;;;;5090677;28;20063;-70
2023/09/07 02:45:57;;;;;;;8.10;5.53;;;19.70;99.90;;;;;;5090494;28;20094;-70
2023/09/07 02:48:22;;;;;;;8.90;5.75;;;19.70;99.90;;;;;;5091760;28;20047;-70
2023/09/07 02:50:50;;;;;;;12.23;5.70;;;19.60;99.90;;;;;;5091382;28;20550;-70
2023/09/07 02:53:16;;;;;;;10.82;5.80;;;19.60;99.90;;;;;;5090250;28;20047;-70
2023/09/07 02:55:42;;;;;;;6.47;5.10;;;19.60;99.90;;;;;;5091359;28;20040;-70
2023/09/07 02:58:07;;;;;;;7.60;5.15;;;19.60;99.90;;;;;;5091467;28;20043;-70
2023/09/07 03:00:34;;;;;;;8.73;5.32;;;19.60;99.90;;;;;;5091304;28;20454;-70
2023/09/07 03:03:00;;;;;;;9.20;5.40;;;19.50;99.90;;;;;;5090263;28;20123;-70
2023/09/07 03:05:28;;;;;;;8.20;5.28;;;19.50;99.90;;;;;;5091345;28;20090;-70
2023/09/07 03:07:54;;;;;;;9.25;5.50;;;19.50;99.90;;;;;;5083309;28;20051;-70
2023/09/07 03:10:19;;;;;;;13.48;6.63;;;19.40;99.90;;;;;;5091334;28;20044;-70
2023/09/07 03:12:45;;;;;;;8.85;5.32;;;19.40;99.90;;;;;;5090719;28;20111;-69
2023/09/07 03:15:12;;;;;;;11.73;5.32;;;19.30;99.90;;;;;;5095093;28;20078;-70
2023/09/07 03:17:37;;;;;;;9.27;5.78;;;19.40;99.90;;;;;;5095288;28;20048;-70
2023/09/07 03:20:13;;;;;;;7.75;5.40;;;19.30;99.90;;;;;;5095160;28;20031;-71
2023/09/07 03:22:43;;;;;;;10.13;5.20;;;19.30;99.90;;;;;;5094044;28;20040;-70
2023/09/07 03:25:09;;;;;;;8.00;4.65;;;19.30;99.90;;;;;;5095030;28;20036;-70
2023/09/07 03:27:35;;;;;;;8.40;5.95;;;19.40;99.90;;;;;;5094812;28;20047;-70
2023/09/07 03:30:03;;;;;;;12.52;6.10;;;19.30;99.90;;;;;;5094959;28;20043;-70
2023/09/07 03:32:32;;;;;;;6.35;5.25;;;19.40;99.90;;;;;;5095084;28;20047;-70
2023/09/07 03:34:58;;;;;;;9.77;5.30;;;19.30;99.90;;;;;;5093620;28;20053;-70
2023/09/07 03:37:24;;;;;;;7.30;5.55;;;19.40;99.90;;;;;;5094715;28;20035;-70
2023/09/07 03:39:50;;;;;;;6.72;5.15;;;19.30;99.90;;;;;;5093586;28;20032;-70
2023/09/07 03:42:16;;;;;;;9.10;6.35;;;19.30;99.90;;;;;;5093338;28;20093;-70
2023/09/07 03:44:41;;;;;;;7.28;5.35;;;19.20;99.90;;;;;;5094831;28;20040;-70
2023/09/07 03:47:08;;;;;;;8.48;5.65;;;19.20;99.90;;;;;;5094782;28;20480;-70
2023/09/07 03:49:34;;;;;;;11.10;5.45;;;19.10;99.90;;;;;;5093116;28;20040;-70
2023/09/07 03:51:59;;;;;;;7.10;5.32;;;19.10;99.90;;;;;;5094599;28;20040;-69
2023/09/07 03:54:25;;;;;;;7.55;5.70;;;19.10;99.90;;;;;;5093126;28;20083;-70
2023/09/07 03:56:51;;;;;;;6.18;5.40;;;19.10;99.90;;;;;;5093076;28;20079;-70
2023/09/07 03:59:16;;;;;;;8.45;4.97;;;19.00;99.90;;;;;;5092830;28;20039;-70
2023/09/07 04:01:42;;;;;;;7.80;6.05;;;19.00;99.90;;;;;;5093076;28;20414;-70
2023/09/07 04:04:08;;;;;;;8.32;5.57;;;19.00;99.90;;;;;;5094323;28;20024;-70
2023/09/07 04:06:33;;;;;;;6.88;5.60;;;19.00;99.90;;;;;;5094282;28;20078;-70
2023/09/07 04:08:59;;;;;;;9.82;5.68;;;18.90;99.90;;;;;;5094037;28;20039;-70
2023/09/07 04:11:24;;;;;;;5.80;4.63;;;19.00;99.90;;;;;;5094073;28;20040;-70
2023/09/07 04:13:50;;;;;;;7.45;5.75;;;18.90;99.90;;;;;;5093822;28;20040;-70
2023/09/07 04:16:15;;;;;;;8.02;5.70;;;18.90;99.90;;;;;;5094212;28;20040;-70
2023/09/07 04:18:42;;;;;;;9.35;6.28;;;18.90;99.90;;;;;;5094071;28;20044;-70
2023/09/07 04:21:08;;;;;;;7.63;5.60;;;18.90;99.90;;;;;;5093942;28;20089;-70
2023/09/07 04:23:35;;;;;;;6.95;5.47;;;18.80;99.90;;;;;;5093319;28;20032;-70
2023/09/07 04:26:06;;;;;;;6.95;5.95;;;18.80;99.90;;;;;;5092498;28;20036;-70
2023/09/07 04:28:31;;;;;;;7.68;6.10;;;18.80;99.90;;;;;;5093767;28;20040;-70
2023/09/07 04:30:57;;;;;;;8.40;6.00;;;18.80;99.90;;;;;;5093785;28;20035;-70
2023/09/07 04:33:22;;;;;;;9.07;6.60;;;18.80;99.90;;;;;;5093687;28;20032;-69
2023/09/07 04:35:48;;;;;;;10.02;6.40;;;18.70;99.90;;;;;;5093362;28;20119;-70
2023/09/07 04:38:13;;;;;;;8.88;6.30;;;18.70;99.90;;;;;;5093594;28;20043;-71
2023/09/07 04:40:39;;;;;;;7.95;6.43;;;18.70;99.90;;;;;;5093316;28;20035;-70
2023/09/07 04:43:04;;;;;;;10.35;6.68;;;18.70;99.90;;;;;;5092508;28;20495;-69
2023/09/07 04:45:30;;;;;;;10.15;7.13;;;18.70;99.90;;;;;;5092195;28;20575;-70
2023/09/07 04:47:55;;;;;;;8.68;6.07;;;18.70;99.90;;;;;;5093275;28;20591;-69
2023/09/07 04:50:21;;;;;;;8.98;6.28;;;18.70;99.90;;;;;;5093040;28;20047;-70
2023/09/07 04:52:46;;;;;;;7.47;6.03;;;18.70;99.90;;;;;;5093227;28;20047;-70
2023/09/07 04:55:12;;;;;;;9.43;6.43;;;18.60;99.90;;;;;;5092934;28;20043;-70
2023/09/07 04:57:38;;;;;;;7.20;6.30;;;18.70;99.90;;;;;;5093017;28;20043;-70
2023/09/07 05:00:06;;;;;;;7.95;6.68;;;18.70;99.90;;;;;;5093169;28;20036;-70
2023/09/07 05:02:31;;;;;;;13.23;7.38;;;18.60;99.90;;;;;;5091893;28;20032;-70
2023/09/07 05:04:57;;;;;;;8.52;6.63;;;18.60;99.90;;;;;;5109244;22;20040;-68
2023/09/07 05:07:23;;;;;;;10.30;6.60;;;18.70;99.90;;;;;;5071494;28;20120;-68
2023/09/07 05:09:48;;;;;;;9.73;6.72;;;18.50;99.90;;;;;;5071546;28;20037;-69
2023/09/07 05:12:18;;;;;;;8.98;6.53;;;18.50;99.90;;;;;;5072248;28;20051;-69
2023/09/07 05:14:43;;;;;;;8.93;6.63;;;18.50;99.90;;;;;;5072444;28;20466;-69
2023/09/07 05:17:17;;;;;;;11.98;7.47;;;18.50;99.90;;;;;;5072732;28;20032;-69
2023/09/07 05:19:43;;;;;;;9.43;6.60;;;18.50;99.90;;;;;;5072493;28;20079;-69
2023/09/07 05:22:08;;;;;;;8.98;6.68;;;18.50;99.90;;;;;;5072626;28;20044;-69
2023/09/07 05:24:37;;;;;;;9.10;6.45;;;18.50;99.90;;;;;;5072392;28;20086;-67
2023/09/07 05:27:03;;;;;;;11.95;6.43;;;18.50;99.90;;;;;;5072292;28;20078;-69
2023/09/07 05:29:28;;;;;;;8.10;6.82;;;18.60;99.90;;;;;;5071050;28;20504;-69
2023/09/07 05:31:54;;;;;;;10.38;7.47;;;18.60;99.90;;;;;;5070914;28;20047;-69
2023/09/07 05:34:19;;;;;;;10.50;6.75;;;18.70;99.90;;;;;;5072226;28;20075;-69
2023/09/07 05:36:45;;;;;;;8.95;6.82;;;18.80;99.90;;;;;;5071547;28;20033;-69
2023/09/07 05:39:10;;;;;;;9.38;7.05;;;18.80;99.90;;;;;;5072071;28;20507;-69
2023/09/07 05:41:36;;;;;;;9.07;7.22;;;18.80;99.90;;;;;;5072306;28;20412;-69
2023/09/07 05:44:02;;;;;;;9.95;7.65;;;18.90;99.90;;;;;;5070829;28;20400;-69
2023/09/07 05:46:27;;;;;;;9.02;7.40;;;18.90;99.90;;;;;;5072063;28;20090;-70
2023/09/07 05:48:53;;;;;;;9.02;6.95;;;18.90;99.90;;;;;;5071965;28;20040;-69
2023/09/07 05:51:19;;;;;;;11.25;7.00;;;19.00;99.90;;;;;;5070770;28;20072;-69
2023/09/07 05:53:44;;;;;;;10.60;7.28;;;19.10;99.90;;;;;;5072206;28;20040;-67
2023/09/07 05:56:10;;;;;;;11.93;8.20;;;19.10;99.90;;;;;;5071902;28;20041;-69
2023/09/07 05:58:35;;;;;;;9.98;7.60;;;19.10;99.90;;;;;;5071954;28;20067;-67
2023/09/07 06:01:01;;;;;;;12.23;7.57;;;19.20;99.90;;;;;;5070857;28;20040;-67
2023/09/07 06:03:27;;;;;;;10.52;7.63;;;19.30;99.90;;;;;;5071786;28;20111;-67
2023/09/07 06:05:52;;;;;;;14.48;7.18;;;19.30;99.90;;;;;;5070506;28;20045;-67
2023/09/07 06:08:18;;;;;;;12.00;7.43;;;19.60;99.90;;;;;;5071833;28;20097;-70
2023/09/07 06:10:44;;;;;;;11.82;8.07;;;19.70;99.90;;;;;;5070578;28;20040;-70
2023/09/07 06:13:09;;;;;;;11.05;7.80;;;19.90;99.90;;;;;;5070554;28;20043;-67
2023/09/07 06:15:35;;;;;;;9.30;6.93;;;20.00;99.90;;;;;;5070804;28;20440;-69
2023/09/07 06:18:00;;;;;;;11.65;6.78;;;20.10;99.90;;;;;;5071855;28;20078;-69
2023/09/07 06:20:26;;;;;;;13.50;7.63;;;20.30;99.90;;;;;;5071575;28;20054;-69
2023/09/07 06:22:52;;;;;;;12.25;7.22;;;20.50;99.90;;;;;;5070699;28;20033;-69
2023/09/07 06:25:17;;;;;;;10.85;6.72;;;20.60;99.90;;;;;;5071693;28;20036;-69
2023/09/07 06:27:43;;;;;;;10.45;7.15;;;20.90;99.90;;;;;;5070354;28;20412;-69
2023/09/07 06:30:09;;;;;;;15.77;7.53;;;20.90;99.90;;;;;;5071889;28;20143;-69
2023/09/07 06:32:35;;;;;;;12.05;7.50;;;21.00;99.90;;;;;;5070409;28;20045;-70
2023/09/07 06:35:00;;;;;;;8.63;7.07;;;21.30;99.90;;;;;;5071305;28;20115;-69
2023/09/07 06:37:26;;;;;;;11.15;6.78;;;21.40;99.90;;;;;;5071456;28;20059;-69
2023/09/07 06:39:52;;;;;;;11.40;7.65;;;21.40;99.90;;;;;;5071368;28;20546;-69
2023/09/07 06:42:17;;;;;;;9.60;6.78;;;21.50;99.90;;;;;;5071430;28;20415;-69
2023/09/07 06:44:43;;;;;;;16.33;7.25;;;21.60;99.90;;;;;;5070164;28;20045;-69
2023/09/07 06:47:09;;;;;;;7.60;6.65;;;21.70;99.90;;;;;;5073020;28;20036;-69
2023/09/07 06:49:34;;;;;;;10.07;6.90;;;21.80;99.90;;;;;;5074015;28;20071;-69
2023/09/07 06:52:00;;;;;;;9.55;7.80;;;21.90;99.90;;;;;;5075642;28;20119;-69
2023/09/07 06:54:28;;;;;;;11.35;7.40;;;22.10;99.90;;;;;;5075345;28;20128;-69
2023/09/07 06:56:54;;;;;;;7.90;6.68;;;22.20;99.90;;;;;;5075232;28;20028;-69
2023/09/07 06:59:19;;;;;;;10.57;6.75;;;22.20;99.90;;;;;;5073845;28;20090;-69
2023/09/07 07:01:45;;;;;;;13.43;6.97;;;22.40;99.90;;;;;;5074032;28;20040;-69
2023/09/07 07:04:11;;;;;;;11.27;6.10;;;22.50;99.90;;;;;;5075215;28;20043;-69
2023/09/07 07:06:36;;;;;;;9.00;6.63;;;22.70;99.90;;;;;;5075253;28;20423;-69
2023/09/07 07:09:02;;;;;;;10.55;6.35;;;22.80;99.90;;;;;;5074880;28;20643;-69
2023/09/07 07:11:27;;;;;;;8.90;6.63;;;22.90;99.90;;;;;;5075006;28;20438;-69
2023/09/07 07:13:53;;;;;;;8.32;6.90;;;22.90;99.90;;;;;;5074903;28;20032;-69
2023/09/07 07:16:18;;;;;;;10.23;7.03;;;23.00;99.90;;;;;;5074926;28;20116;-69
2023/09/07 07:18:44;;;;;;;11.18;7.78;;;23.20;99.90;;;;;;5074770;28;20120;-69
2023/09/07 07:21:10;;;;;;;9.23;7.43;;;23.10;99.90;;;;;;5074965;28;20032;-69
2023/09/07 07:23:36;;;;;;;8.07;6.68;;;23.40;99.90;;;;;;5073528;28;20040;-69
2023/09/07 07:26:02;;;;;;;9.90;6.90;;;23.50;99.90;;;;;;5073348;28;20055;-69
2023/09/07 07:28:27;;;;;;;8.25;6.20;;;23.70;99.90;;;;;;5074854;28;20040;-69
2023/09/07 07:30:53;;;;;;;11.57;6.65;;;23.80;99.90;;;;;;5074463;28;20044;-69
2023/09/07 07:33:19;;;;;;;8.05;6.63;;;23.80;99.90;;;;;;5074766;28;20048;-69
2023/09/07 07:35:45;;;;;;;9.60;6.60;;;24.00;99.90;;;;;;5073175;28;20044;-69
2023/09/07 07:38:13;;;;;;;10.45;6.65;;;24.10;99.80;;;;;;5073172;28;20048;-69
2023/09/07 07:40:39;;;;;;;10.48;7.03;;;24.20;99.70;;;;;;5072730;28;20048;-69
2023/09/07 07:43:06;;;;;;;9.60;6.07;;;24.30;99.80;;;;;;5073537;28;20090;-69
2023/09/07 07:45:36;;;;;;;10.02;7.18;;;24.20;99.10;;;;;;5074416;28;20087;-69
2023/09/07 07:48:02;;;;;;;7.95;5.57;;;24.30;99.10;;;;;;5073269;28;20040;-69
2023/09/07 07:50:27;;;;;;;20.88;6.25;;;24.50;98.90;;;;;;5074217;28;20076;-69
2023/09/07 07:52:53;;;;;;;11.38;6.28;;;24.70;98.90;;;;;;5074322;28;20076;-69
2023/09/07 07:55:19;;;;;;;9.88;6.40;;;24.90;98.80;;;;;;5072804;28;20087;-69
2023/09/07 07:57:44;;;;;;;13.55;5.82;;;24.80;98.50;;;;;;5074378;28;20115;-69
2023/09/07 08:00:10;;;;;;;9.77;6.03;;;24.90;98.60;;;;;;5071994;28;20040;-69
2023/09/07 08:02:37;;;;;;;9.48;6.47;;;25.10;98.40;;;;;;5072975;28;20051;-70
2023/09/07 08:05:04;;;;;;;7.93;5.63;;;25.10;97.60;;;;;;5072885;28;20499;-69
2023/09/07 08:07:29;;;;;;;7.30;5.93;;;25.30;97.90;;;;;;5074020;28;20048;-69
2023/09/07 08:09:55;;;;;;;7.72;5.90;;;25.40;97.40;;;;;;5074038;28;20040;-69
2023/09/07 08:12:21;;;;;;;9.27;5.47;;;25.50;97.20;;;;;;5074205;28;20052;-69
2023/09/07 08:14:46;;;;;;;10.45;6.18;;;25.50;97.00;;;;;;5073701;28;20397;-69
2023/09/07 08:17:12;;;;;;;9.77;6.72;;;25.50;96.30;;;;;;5055841;28;20039;-69
2023/09/07 08:19:38;;;;;;;10.82;6.25;;;25.40;96.20;;;;;;5073659;28;20029;-69
2023/09/07 08:22:05;;;;;;;9.65;6.35;;;25.50;96.90;;;;;;5073733;28;20454;-69
2023/09/07 08:24:31;;;;;;;7.82;6.18;;;25.70;96.60;;;;;;5072614;28;20048;-69
2023/09/07 08:26:57;;;;;;;7.28;5.88;;;25.70;96.40;;;;;;5072325;28;20575;-69
2023/09/07 08:29:26;;;;;;;11.23;6.85;;;25.80;95.80;;;;;;5072164;28;20048;-69
2023/09/07 08:31:52;;;;;;;9.38;6.00;;;25.70;96.00;;;;;;5073562;28;20396;-69
2023/09/07 08:34:21;;;;;;;11.10;5.88;;;25.80;96.30;;;;;;5073436;28;20036;-69
2023/09/07 08:36:47;;;;;;;7.95;6.40;;;26.00;96.20;;;;;;5073404;28;20055;-70
2023/09/07 08:39:13;;;;;;;6.93;6.10;;;25.70;95.60;;;;;;5073457;28;20048;-69
2023/09/07 08:41:44;;;;;;;7.80;5.72;;;26.00;96.00;;;;;;5073537;28;20043;-69
2023/09/07 08:44:17;;;;;;;8.40;5.95;;;26.20;95.80;;;;;;5073296;28;20488;-70
2023/09/07 08:46:43;;;;;;;10.52;6.05;;;26.40;95.20;;;;;;5072217;28;20086;-70
2023/09/07 08:49:11;;;;;;;7.63;6.20;;;26.40;94.70;;;;;;5073010;28;20453;-70
2023/09/07 08:51:37;;;;;;;10.13;5.68;;;26.20;94.00;;;;;;5072114;28;20397;-70
2023/09/07 08:54:03;;;;;;;7.63;5.32;;;26.30;93.10;;;;;;5073171;28;20033;-70
2023/09/07 08:56:29;;;;;;;6.60;5.13;;;26.20;93.50;;;;;;5071732;28;20040;-70
2023/09/07 08:58:55;;;;;;;8.35;6.05;;;26.20;93.50;;;;;;5071470;28;20411;-70
2023/09/07 09:01:21;;;;;;;10.38;5.82;;;26.20;93.60;;;;;;5071738;28;20036;-70
2023/09/07 09:03:48;;;;;;;10.65;6.18;;;26.30;94.10;;;;;;5071581;28;20043;-70
2023/09/07 09:06:16;;;;;;;11.30;5.50;;;26.40;93.60;;;;;;5072699;28;20044;-70
2023/09/07 09:08:48;;;;;;;8.35;5.47;;;26.40;93.40;;;;;;5071673;28;20633;-69
2023/09/07 09:11:14;;;;;;;;;;;26.30;92.50;;;;;;5073329;28;20072;-69
2023/09/07 09:13:41;;;;;;;9.35;5.68;;;26.30;93.40;;;;;;5071772;28;20379;-69
2023/09/07 09:16:06;;;;;;;10.82;5.68;;;26.50;93.00;;;;;;5072524;28;20036;-69
2023/09/07 09:18:32;;;;;;;9.65;4.82;;;26.60;92.60;;;;;;5072491;28;20087;-69
2023/09/07 09:21:00;;;;;;;8.55;4.57;;;26.50;91.50;;;;;;5072591;28;20036;-69
2023/09/07 09:23:36;;;;;;;7.95;4.70;;;26.60;90.50;;;;;;5072683;28;20028;-69
2023/09/07 09:26:04;;;;;;;7.07;4.68;;;26.50;90.30;;;;;;5071068;28;20063;-69
2023/09/07 09:28:34;;;;;;;9.40;4.88;;;26.60;90.90;;;;;;5072379;28;20098;-69
2023/09/07 09:31:01;;;;;;;6.45;4.50;;;26.50;90.00;;;;;;5072264;28;20411;-70
2023/09/07 09:33:30;;;;;;;6.65;4.88;;;26.60;89.50;;;;;;5072510;28;20477;-69
2023/09/07 09:35:56;;;;;;;9.52;4.95;;;26.60;88.10;;;;;;5072227;28;20068;-69
2023/09/07 09:38:22;;;;;;;7.72;5.47;;;26.40;87.60;;;;;;5072185;28;20041;-69
2023/09/07 09:40:47;;;;;;;9.90;5.55;;;26.40;88.30;;;;;;5068179;28;20041;-69
2023/09/07 09:43:13;;;;;;;6.85;4.70;;;26.30;89.10;;;;;;5063785;28;20028;-69
2023/09/07 09:45:39;;;;;;;6.05;4.63;;;26.40;89.20;;;;;;5070985;28;20044;-69
2023/09/07 09:48:05;;;;;;;7.93;5.13;;;26.60;88.40;;;;;;5063273;28;20086;-69
2023/09/07 09:50:37;;;;;;;11.13;4.57;;;26.40;88.60;;;;;;5072018;28;20173;-69
2023/09/07 09:53:09;;;;;;;6.60;4.97;;;26.60;89.40;;;;;;5072199;28;20040;-69
2023/09/07 09:55:35;;;;;;;8.32;5.18;;;26.60;89.00;;;;;;5070685;28;20082;-69
2023/09/07 09:58:00;;;;;;;7.90;4.90;;;26.60;88.40;;;;;;5071567;28;20036;-69
2023/09/07 10:00:28;;;;;;;12.15;5.85;;;26.60;89.50;;;;;;5063587;28;20028;-69
2023/09/07 10:03:16;;;;;;;7.97;4.57;;;26.70;89.70;;;;;;5071847;28;20511;-69
2023/09/07 10:05:44;;;;;;;7.80;4.90;;;26.60;87.90;;;;;;5071753;28;20066;-69
2023/09/07 10:08:13;;;;;;;7.40;4.82;;;26.60;87.30;;;;;;5071849;28;20036;-69
2023/09/07 10:10:40;;;;;;;8.85;5.43;;;26.60;86.20;;;;;;5071556;28;20520;-68
2023/09/07 10:13:06;;;;;;;10.57;5.28;;;26.50;87.10;;;;;;5071953;28;20045;-69
2023/09/07 10:15:41;;;;;;;8.25;4.63;;;26.60;87.50;;;;;;5071852;28;20462;-70
2023/09/07 10:18:16;;;;;;;6.85;5.15;;;26.70;87.60;;;;;;5071272;28;20431;-70
2023/09/07 10:20:55;;;;;;;13.48;4.75;;;26.90;82.50;;;;;;5069879;28;20037;-70
2023/09/07 10:23:25;;;;;;;6.38;4.88;;;27.10;81.40;;;;;;5066991;28;20560;-70
2023/09/07 10:25:54;;;;;;;6.65;4.80;;;27.20;82.90;;;;;;5070993;28;20454;-70
2023/09/07 10:28:24;;;;;;;15.02;4.95;;;27.20;81.30;;;;;;5071225;28;20043;-71
2023/09/07 10:31:07;;;;;;;9.60;4.88;;;27.20;77.80;;;;;;5065774;28;20064;-70
2023/09/07 10:33:34;;;;;;;8.00;4.47;;;27.20;74.80;;;;;;5068008;28;20044;-70
2023/09/07 10:36:01;;;;;;;7.55;4.80;;;27.20;76.20;;;;;;5070446;28;20416;-70
2023/09/07 10:38:27;;;;;;;7.93;4.60;;;27.20;76.30;;;;;;5071768;28;20086;-70
2023/09/07 10:40:58;;;;;;;6.78;4.57;;;27.20;75.20;;;;;;5071538;28;20033;-70
2023/09/07 10:43:27;;;;;;;6.43;4.35;;;27.30;74.60;;;;;;5071602;28;20376;-70
2023/09/07 10:45:55;;;;;;;9.45;4.88;;;27.40;74.30;;;;;;5071315;28;20550;-70
2023/09/07 10:48:22;;;;;;;6.90;4.40;;;27.50;73.20;;;;;;5071556;28;20199;-71
2023/09/07 10:50:48;;;;;;;6.55;4.13;;;27.50;71.80;;;;;;5070052;28;20048;-71
2023/09/07 10:53:14;;;;;;;8.30;4.13;;;27.50;71.20;;;;;;5071600;28;20041;-71
2023/09/07 10:55:43;;;;;;;7.20;3.75;;;27.50;69.80;;;;;;5071255;28;20040;-69
2023/09/07 10:58:10;;;;;;;6.53;3.97;;;27.50;69.60;;;;;;5071279;28;20041;-69
2023/09/07 11:00:37;;;;;;;6.00;3.97;;;27.50;67.90;;;;;;5071147;28;20068;-70
2023/09/07 11:03:10;;;;;;;7.55;3.78;;;27.60;67.80;;;;;;5070316;28;20044;-70
2023/09/07 11:05:37;;;;;;;5.45;3.70;;;27.60;67.50;;;;;;5075297;22;20102;-73
2023/09/07 11:08:04;;;;;;;6.38;4.20;;;27.60;67.40;;;;;;5031075;28;20159;-72
2023/09/07 11:10:36;;;;;;;7.85;4.07;;;27.70;68.50;;;;;;5030468;28;20061;-72
2023/09/07 11:13:06;;;;;;;8.13;3.90;;;27.80;69.20;;;;;;5031136;28;20060;-72
2023/09/07 11:15:36;;;;;;;5.72;3.92;;;27.80;67.70;;;;;;5031141;28;20046;-73
2023/09/07 11:18:06;;;;;;;6.32;3.90;;;27.80;66.50;;;;;;5031169;28;20037;-73
2023/09/07 11:20:33;;;;;;;5.88;3.58;;;27.90;66.00;;;;;;5030661;28;20672;-74
2023/09/07 11:22:59;;;;;;;8.45;4.47;;;27.90;66.30;;;;;;5013267;28;20505;-73
2023/09/07 11:25:25;;;;;;;4.78;3.88;;;27.80;65.90;;;;;;5030490;28;20518;-73
2023/09/07 11:27:54;;;;;;;6.18;3.75;;;27.80;65.00;;;;;;5031200;28;20132;-74
2023/09/07 11:30:20;;;;;;;16.08;4.95;;;27.70;63.80;;;;;;5030903;28;20505;-73
2023/09/07 11:32:46;;;;;;;10.15;4.03;;;27.80;63.00;;;;;;5012972;28;20100;-73
2023/09/07 11:35:12;;;;;;;4.80;4.05;;;27.80;63.80;;;;;;5033491;28;20042;-73
2023/09/07 11:37:37;;;;;;;6.15;3.47;;;27.80;62.80;;;;;;5016913;28;20091;-73
2023/09/07 11:40:10;;;;;;;5.32;3.47;;;27.80;62.10;;;;;;5033571;28;20040;-72
2023/09/07 11:42:36;;;;;;;5.82;4.03;;;27.80;60.80;;;;;;5034227;28;20112;-72
2023/09/07 11:45:02;;;;;;;8.80;4.28;;;27.90;60.90;;;;;;5034188;28;20125;-72
2023/09/07 11:47:28;;;;;;;6.75;4.25;;;27.80;60.10;;;;;;5000110;28;20045;-72
2023/09/07 11:49:53;;;;;;;5.25;4.20;;;27.80;59.70;;;;;;5016699;28;20041;-72
2023/09/07 11:52:19;;;;;;;6.13;3.60;;;27.80;60.00;;;;;;5034234;28;20426;-72
2023/09/07 11:54:45;;;;;;;4.78;3.65;;;27.80;60.10;;;;;;5033986;28;20099;-72
2023/09/07 11:57:10;;;;;;;5.53;4.45;;;27.80;60.00;;;;;;5034274;28;20144;-72
2023/09/07 11:59:36;;;;;;;5.50;3.92;;;28.00;60.00;;;;;;5016414;28;20077;-72
2023/09/07 12:02:01;;;;;;;5.90;3.70;;;28.00;60.00;;;;;;5016748;28;20157;-72
2023/09/07 12:04:27;;;;;;;6.65;3.83;;;28.00;59.00;;;;;;5034225;28;20038;-72
2023/09/07 12:06:53;;;;;;;6.03;3.70;;;28.00;58.40;;;;;;5033793;28;20041;-72
2023/09/07 12:09:18;;;;;;;5.03;3.58;;;28.00;57.80;;;;;;5032711;28;20042;-71
2023/09/07 12:11:44;;;;;;;6.03;4.10;;;28.30;58.20;;;;;;5032734;28;20059;-72
2023/09/07 12:14:09;;;;;;;6.57;4.07;;;28.30;58.50;;;;;;5032755;28;20041;-72
2023/09/07 12:16:35;;;;;;;6.65;4.45;;;28.40;58.10;;;;;;5033668;28;20099;-72
2023/09/07 12:19:00;;;;;;;8.80;4.43;;;28.40;56.90;;;;;;5033684;28;20576;-73
2023/09/07 12:21:26;;;;;;;7.55;4.03;;;28.40;57.20;;;;;;5033867;28;20041;-72
2023/09/07 12:23:52;;;;;;;5.43;3.72;;;28.50;57.90;;;;;;5033772;28;20040;-71
2023/09/07 12:26:19;;;;;;;6.68;4.53;;;28.50;58.40;;;;;;5033613;28;20068;-72
2023/09/07 12:28:44;;;;;;;4.97;3.78;;;28.50;58.20;;;;;;5033502;28;20045;-72
2023/09/07 12:31:11;;;;;;;5.65;4.03;;;28.50;56.90;;;;;;5033414;28;20037;-72
2023/09/07 12:33:37;;;;;;;5.80;3.72;;;28.50;57.10;;;;;;5033200;28;20044;-72
2023/09/07 12:36:03;;;;;;;7.55;4.57;;;28.50;58.10;;;;;;5032678;28;20048;-73
2023/09/07 12:38:29;;;;;;;7.65;4.07;;;28.50;58.50;;;;;;5032844;28;20382;-72
2023/09/07 12:40:55;;;;;;;5.68;3.95;;;28.50;59.10;;;;;;5033147;28;20061;-72